sensor_id;sensor_type;location;lat;lon;timestamp;P1;durP1;ratioP1;P2;durP2;ratioP2
8640;SDS011;4358;42.100;25.222;2024-02-26T00:01:49;6.07;;;5.13;;
8640;SDS011;4358;42.100;25.222;2024-02-26T00:04:17;7.97;;;5.80;;
8640;SDS011;4358;42.100;25.222;2024-02-26T00:06:44;8.77;;;5.53;;
8640;SDS011;4358;42.100;25.222;2024-02-26T00:09:11;10.03;;;6.70;;
8640;SDS011;4358;42.100;25.222;2024-02-26T00:11:38;9.10;;;5.70;;
8640;SDS011;4358;42.100;25.222;2024-02-26T00:14:05;8.80;;;5.87;;
8640;SDS011;4358;42.100;25.222;2024-02-26T00:16:32;7.47;;;5.60;;
8640;SDS011;4358;42.100;25.222;2024-02-26T00:18:59;7.87;;;6.13;;
8640;SDS011;4358;42.100;25.222;2024-02-26T00:21:28;9.33;;;5.80;;
8640;SDS011;4358;42.100;25.222;2024-02-26T00:23:55;8.43;;;6.23;;
8640;SDS011;4358;42.100;25.222;2024-02-26T00:26:22;9.67;;;5.90;;
8640;SDS011;4358;42.100;25.222;2024-02-26T00:28:48;6.53;;;5.80;;
8640;SDS011;4358;42.100;25.222;2024-02-26T00:31:15;8.33;;;6.80;;
8640;SDS011;4358;42.100;25.222;2024-02-26T00:33:42;9.33;;;5.70;;
8640;SDS011;4358;42.100;25.222;2024-02-26T00:36:09;8.37;;;5.77;;
8640;SDS011;4358;42.100;25.222;2024-02-26T00:38:37;7.37;;;5.43;;
8640;SDS011;4358;42.100;25.222;2024-02-26T00:41:04;5.90;;;5.00;;
8640;SDS011;4358;42.100;25.222;2024-02-26T00:43:31;7.90;;;5.33;;
8640;SDS011;4358;42.100;25.222;2024-02-26T00:45:58;9.50;;;5.87;;
8640;SDS011;4358;42.100;25.222;2024-02-26T00:48:25;9.87;;;6.10;;
8640;SDS011;4358;42.100;25.222;2024-02-26T00:50:52;7.47;;;5.87;;
8640;SDS011;4358;42.100;25.222;2024-02-26T00:53:19;7.87;;;5.37;;
8640;SDS011;4358;42.100;25.222;2024-02-26T00:55:47;6.73;;;5.70;;
8640;SDS011;4358;42.100;25.222;2024-02-26T00:58:14;6.93;;;5.33;;
8640;SDS011;4358;42.100;25.222;2024-02-26T01:00:41;9.63;;;6.20;;
8640;SDS011;4358;42.100;25.222;2024-02-26T01:03:07;7.07;;;5.07;;
8640;SDS011;4358;42.100;25.222;2024-02-26T01:05:35;7.00;;;5.27;;
8640;SDS011;4358;42.100;25.222;2024-02-26T01:08:03;8.47;;;5.50;;
8640;SDS011;4358;42.100;25.222;2024-02-26T01:10:30;7.80;;;5.47;;
8640;SDS011;4358;42.100;25.222;2024-02-26T01:12:58;7.93;;;5.50;;
8640;SDS011;4358;42.100;25.222;2024-02-26T01:15:25;11.07;;;6.23;;
8640;SDS011;4358;42.100;25.222;2024-02-26T01:17:52;10.03;;;6.70;;
8640;SDS011;4358;42.100;25.222;2024-02-26T01:20:19;16.37;;;7.43;;
8640;SDS011;4358;42.100;25.222;2024-02-26T01:22:46;11.33;;;6.83;;
8640;SDS011;4358;42.100;25.222;2024-02-26T01:25:13;9.17;;;6.40;;
8640;SDS011;4358;42.100;25.222;2024-02-26T01:27:41;11.90;;;6.90;;
8640;SDS011;4358;42.100;25.222;2024-02-26T01:30:10;8.50;;;6.20;;
8640;SDS011;4358;42.100;25.222;2024-02-26T01:32:37;12.60;;;6.80;;
8640;SDS011;4358;42.100;25.222;2024-02-26T01:35:04;11.17;;;7.60;;
8640;SDS011;4358;42.100;25.222;2024-02-26T01:37:35;9.97;;;7.27;;
8640;SDS011;4358;42.100;25.222;2024-02-26T01:40:02;8.77;;;7.23;;
8640;SDS011;4358;42.100;25.222;2024-02-26T01:42:30;10.43;;;7.43;;
8640;SDS011;4358;42.100;25.222;2024-02-26T01:44:57;11.13;;;7.30;;
8640;SDS011;4358;42.100;25.222;2024-02-26T01:47:25;10.27;;;7.63;;
8640;SDS011;4358;42.100;25.222;2024-02-26T01:49:53;10.73;;;7.83;;
8640;SDS011;4358;42.100;25.222;2024-02-26T01:52:21;11.63;;;8.83;;
8640;SDS011;4358;42.100;25.222;2024-02-26T01:54:48;9.50;;;7.43;;
8640;SDS011;4358;42.100;25.222;2024-02-26T01:57:16;8.80;;;7.30;;
8640;SDS011;4358;42.100;25.222;2024-02-26T01:59:43;11.10;;;7.73;;
8640;SDS011;4358;42.100;25.222;2024-02-26T02:02:10;10.13;;;8.00;;
8640;SDS011;4358;42.100;25.222;2024-02-26T02:04:40;10.50;;;8.07;;
8640;SDS011;4358;42.100;25.222;2024-02-26T02:07:07;10.77;;;7.90;;
8640;SDS011;4358;42.100;25.222;2024-02-26T02:09:35;11.23;;;7.83;;
8640;SDS011;4358;42.100;25.222;2024-02-26T02:12:02;9.17;;;7.20;;
8640;SDS011;4358;42.100;25.222;2024-02-26T02:14:29;8.33;;;7.47;;
8640;SDS011;4358;42.100;25.222;2024-02-26T02:16:56;10.20;;;7.87;;
8640;SDS011;4358;42.100;25.222;2024-02-26T02:19:23;8.13;;;7.00;;
8640;SDS011;4358;42.100;25.222;2024-02-26T02:21:51;9.70;;;6.83;;
8640;SDS011;4358;42.100;25.222;2024-02-26T02:24:18;10.80;;;7.23;;
8640;SDS011;4358;42.100;25.222;2024-02-26T02:26:45;11.27;;;6.70;;
8640;SDS011;4358;42.100;25.222;2024-02-26T02:29:12;11.43;;;7.40;;
8640;SDS011;4358;42.100;25.222;2024-02-26T02:31:39;9.57;;;7.17;;
8640;SDS011;4358;42.100;25.222;2024-02-26T02:34:06;11.03;;;7.40;;
8640;SDS011;4358;42.100;25.222;2024-02-26T02:36:34;9.00;;;6.93;;
8640;SDS011;4358;42.100;25.222;2024-02-26T02:39:02;10.70;;;7.10;;
8640;SDS011;4358;42.100;25.222;2024-02-26T02:41:29;9.60;;;6.67;;
8640;SDS011;4358;42.100;25.222;2024-02-26T02:43:56;8.77;;;6.67;;
8640;SDS011;4358;42.100;25.222;2024-02-26T02:46:23;9.50;;;7.43;;
8640;SDS011;4358;42.100;25.222;2024-02-26T02:48:50;10.27;;;7.70;;
8640;SDS011;4358;42.100;25.222;2024-02-26T02:51:17;11.73;;;8.10;;
8640;SDS011;4358;42.100;25.222;2024-02-26T02:53:43;9.60;;;7.13;;
8640;SDS011;4358;42.100;25.222;2024-02-26T02:56:12;11.07;;;8.10;;
8640;SDS011;4358;42.100;25.222;2024-02-26T02:58:38;10.97;;;7.13;;
8640;SDS011;4358;42.100;25.222;2024-02-26T03:01:05;8.97;;;7.73;;
8640;SDS011;4358;42.100;25.222;2024-02-26T03:03:32;10.63;;;7.50;;
8640;SDS011;4358;42.100;25.222;2024-02-26T03:05:59;9.73;;;7.70;;
8640;SDS011;4358;42.100;25.222;2024-02-26T03:08:26;9.63;;;7.50;;
8640;SDS011;4358;42.100;25.222;2024-02-26T03:10:52;13.40;;;8.33;;
8640;SDS011;4358;42.100;25.222;2024-02-26T03:13:21;10.40;;;7.50;;
8640;SDS011;4358;42.100;25.222;2024-02-26T03:15:47;11.63;;;7.57;;
8640;SDS011;4358;42.100;25.222;2024-02-26T03:18:14;13.50;;;7.60;;
8640;SDS011;4358;42.100;25.222;2024-02-26T03:20:41;9.50;;;7.70;;
8640;SDS011;4358;42.100;25.222;2024-02-26T03:23:08;9.03;;;7.73;;
8640;SDS011;4358;42.100;25.222;2024-02-26T03:25:37;9.20;;;7.50;;
8640;SDS011;4358;42.100;25.222;2024-02-26T03:28:05;9.17;;;7.03;;
8640;SDS011;4358;42.100;25.222;2024-02-26T03:30:33;11.73;;;7.90;;
8640;SDS011;4358;42.100;25.222;2024-02-26T03:33:00;12.70;;;8.47;;
8640;SDS011;4358;42.100;25.222;2024-02-26T03:35:27;11.80;;;7.50;;
8640;SDS011;4358;42.100;25.222;2024-02-26T03:37:54;9.60;;;7.20;;
8640;SDS011;4358;42.100;25.222;2024-02-26T03:40:21;8.57;;;6.87;;
8640;SDS011;4358;42.100;25.222;2024-02-26T03:42:48;11.43;;;7.50;;
8640;SDS011;4358;42.100;25.222;2024-02-26T03:45:15;9.87;;;6.87;;
8640;SDS011;4358;42.100;25.222;2024-02-26T03:47:43;13.93;;;8.90;;
8640;SDS011;4358;42.100;25.222;2024-02-26T03:50:10;23.83;;;12.00;;
8640;SDS011;4358;42.100;25.222;2024-02-26T03:52:36;13.40;;;9.20;;
8640;SDS011;4358;42.100;25.222;2024-02-26T03:55:03;11.90;;;8.03;;
8640;SDS011;4358;42.100;25.222;2024-02-26T03:57:30;11.67;;;7.20;;
8640;SDS011;4358;42.100;25.222;2024-02-26T03:59:57;9.87;;;7.33;;
8640;SDS011;4358;42.100;25.222;2024-02-26T04:02:24;10.00;;;7.60;;
8640;SDS011;4358;42.100;25.222;2024-02-26T04:04:53;12.50;;;7.30;;
8640;SDS011;4358;42.100;25.222;2024-02-26T04:07:20;11.67;;;7.60;;
8640;SDS011;4358;42.100;25.222;2024-02-26T04:09:47;9.73;;;7.37;;
8640;SDS011;4358;42.100;25.222;2024-02-26T04:12:13;9.20;;;7.27;;
8640;SDS011;4358;42.100;25.222;2024-02-26T04:14:40;10.43;;;7.20;;
8640;SDS011;4358;42.100;25.222;2024-02-26T04:17:07;11.77;;;7.13;;
8640;SDS011;4358;42.100;25.222;2024-02-26T04:19:34;8.67;;;7.07;;
8640;SDS011;4358;42.100;25.222;2024-02-26T04:22:02;10.50;;;7.47;;
8640;SDS011;4358;42.100;25.222;2024-02-26T04:24:30;10.47;;;7.27;;
8640;SDS011;4358;42.100;25.222;2024-02-26T04:26:57;9.97;;;7.13;;
8640;SDS011;4358;42.100;25.222;2024-02-26T04:29:24;11.37;;;7.73;;
8640;SDS011;4358;42.100;25.222;2024-02-26T04:31:50;9.57;;;8.37;;
8640;SDS011;4358;42.100;25.222;2024-02-26T04:34:17;9.97;;;7.67;;
8640;SDS011;4358;42.100;25.222;2024-02-26T04:36:44;10.63;;;8.17;;
8640;SDS011;4358;42.100;25.222;2024-02-26T04:39:14;7.60;;;6.73;;
8640;SDS011;4358;42.100;25.222;2024-02-26T04:41:41;12.70;;;7.93;;
8640;SDS011;4358;42.100;25.222;2024-02-26T04:44:08;10.23;;;7.20;;
8640;SDS011;4358;42.100;25.222;2024-02-26T04:46:35;10.53;;;8.03;;
8640;SDS011;4358;42.100;25.222;2024-02-26T04:49:02;11.47;;;7.60;;
8640;SDS011;4358;42.100;25.222;2024-02-26T04:51:28;13.10;;;8.67;;
8640;SDS011;4358;42.100;25.222;2024-02-26T04:53:55;13.83;;;8.23;;
8640;SDS011;4358;42.100;25.222;2024-02-26T04:56:25;8.87;;;7.97;;
8640;SDS011;4358;42.100;25.222;2024-02-26T04:58:52;30.80;;;9.17;;
8640;SDS011;4358;42.100;25.222;2024-02-26T05:01:19;10.60;;;8.17;;
8640;SDS011;4358;42.100;25.222;2024-02-26T05:03:46;14.70;;;7.90;;
8640;SDS011;4358;42.100;25.222;2024-02-26T05:06:12;13.20;;;8.67;;
8640;SDS011;4358;42.100;25.222;2024-02-26T05:08:40;15.23;;;9.90;;
8640;SDS011;4358;42.100;25.222;2024-02-26T05:11:07;12.03;;;7.93;;
8640;SDS011;4358;42.100;25.222;2024-02-26T05:13:35;23.70;;;9.33;;
8640;SDS011;4358;42.100;25.222;2024-02-26T05:16:02;13.10;;;9.03;;
8640;SDS011;4358;42.100;25.222;2024-02-26T05:18:29;14.40;;;9.00;;
8640;SDS011;4358;42.100;25.222;2024-02-26T05:20:56;19.40;;;8.93;;
8640;SDS011;4358;42.100;25.222;2024-02-26T05:23:23;9.63;;;7.90;;
8640;SDS011;4358;42.100;25.222;2024-02-26T05:25:49;15.07;;;8.47;;
8640;SDS011;4358;42.100;25.222;2024-02-26T05:28:16;21.10;;;9.60;;
8640;SDS011;4358;42.100;25.222;2024-02-26T05:30:47;19.90;;;9.07;;
8640;SDS011;4358;42.100;25.222;2024-02-26T05:33:13;18.03;;;9.43;;
8640;SDS011;4358;42.100;25.222;2024-02-26T05:35:40;28.07;;;10.33;;
8640;SDS011;4358;42.100;25.222;2024-02-26T05:38:08;35.63;;;12.73;;
8640;SDS011;4358;42.100;25.222;2024-02-26T05:40:35;96.20;;;17.73;;
8640;SDS011;4358;42.100;25.222;2024-02-26T05:43:01;33.83;;;12.43;;
8640;SDS011;4358;42.100;25.222;2024-02-26T05:45:28;121.53;;;16.87;;
8640;SDS011;4358;42.100;25.222;2024-02-26T05:47:56;62.00;;;12.57;;
8640;SDS011;4358;42.100;25.222;2024-02-26T05:50:23;47.83;;;11.60;;
8640;SDS011;4358;42.100;25.222;2024-02-26T05:52:51;60.70;;;12.83;;
8640;SDS011;4358;42.100;25.222;2024-02-26T05:55:17;27.60;;;10.97;;
8640;SDS011;4358;42.100;25.222;2024-02-26T05:57:44;38.43;;;12.10;;
8640;SDS011;4358;42.100;25.222;2024-02-26T06:00:11;62.13;;;12.57;;
8640;SDS011;4358;42.100;25.222;2024-02-26T06:02:39;39.93;;;11.93;;
8640;SDS011;4358;42.100;25.222;2024-02-26T06:05:07;68.47;;;16.87;;
8640;SDS011;4358;42.100;25.222;2024-02-26T06:07:34;25.30;;;12.60;;
8640;SDS011;4358;42.100;25.222;2024-02-26T06:10:01;16.00;;;9.80;;
8640;SDS011;4358;42.100;25.222;2024-02-26T06:12:29;16.33;;;10.03;;
8640;SDS011;4358;42.100;25.222;2024-02-26T06:14:57;15.07;;;9.80;;
8640;SDS011;4358;42.100;25.222;2024-02-26T06:17:26;19.33;;;12.70;;
8640;SDS011;4358;42.100;25.222;2024-02-26T06:19:53;44.33;;;12.63;;
8640;SDS011;4358;42.100;25.222;2024-02-26T06:22:21;17.20;;;9.73;;
8640;SDS011;4358;42.100;25.222;2024-02-26T06:24:48;10.97;;;8.63;;
8640;SDS011;4358;42.100;25.222;2024-02-26T06:27:15;16.57;;;9.07;;
8640;SDS011;4358;42.100;25.222;2024-02-26T06:29:42;23.20;;;8.77;;
8640;SDS011;4358;42.100;25.222;2024-02-26T06:32:08;25.00;;;9.00;;
8640;SDS011;4358;42.100;25.222;2024-02-26T06:34:35;20.70;;;11.60;;
8640;SDS011;4358;42.100;25.222;2024-02-26T06:37:03;60.63;;;26.53;;
8640;SDS011;4358;42.100;25.222;2024-02-26T06:39:31;61.10;;;32.63;;
8640;SDS011;4358;42.100;25.222;2024-02-26T06:41:58;59.50;;;32.67;;
8640;SDS011;4358;42.100;25.222;2024-02-26T06:44:26;57.83;;;26.87;;
8640;SDS011;4358;42.100;25.222;2024-02-26T06:46:57;61.50;;;34.73;;
8640;SDS011;4358;42.100;25.222;2024-02-26T06:49:24;41.67;;;19.17;;
8640;SDS011;4358;42.100;25.222;2024-02-26T06:51:51;24.17;;;11.37;;
8640;SDS011;4358;42.100;25.222;2024-02-26T06:54:18;24.13;;;16.17;;
8640;SDS011;4358;42.100;25.222;2024-02-26T06:56:46;61.50;;;13.53;;
8640;SDS011;4358;42.100;25.222;2024-02-26T06:59:13;25.47;;;12.60;;
8640;SDS011;4358;42.100;25.222;2024-02-26T07:01:40;31.53;;;13.93;;
8640;SDS011;4358;42.100;25.222;2024-02-26T07:04:08;15.70;;;10.80;;
8640;SDS011;4358;42.100;25.222;2024-02-26T07:06:36;15.23;;;12.07;;
8640;SDS011;4358;42.100;25.222;2024-02-26T07:09:03;17.13;;;10.40;;
8640;SDS011;4358;42.100;25.222;2024-02-26T07:11:31;14.43;;;10.67;;
8640;SDS011;4358;42.100;25.222;2024-02-26T07:13:59;13.83;;;9.57;;
8640;SDS011;4358;42.100;25.222;2024-02-26T07:16:27;14.70;;;10.73;;
8640;SDS011;4358;42.100;25.222;2024-02-26T07:18:53;25.60;;;10.60;;
8640;SDS011;4358;42.100;25.222;2024-02-26T07:21:20;14.77;;;10.87;;
8640;SDS011;4358;42.100;25.222;2024-02-26T07:23:47;13.03;;;10.50;;
8640;SDS011;4358;42.100;25.222;2024-02-26T07:26:14;35.70;;;12.03;;
8640;SDS011;4358;42.100;25.222;2024-02-26T07:28:42;26.77;;;10.00;;
8640;SDS011;4358;42.100;25.222;2024-02-26T07:31:10;22.37;;;11.37;;
8640;SDS011;4358;42.100;25.222;2024-02-26T07:33:37;27.07;;;14.40;;
8640;SDS011;4358;42.100;25.222;2024-02-26T07:36:04;21.33;;;13.77;;
8640;SDS011;4358;42.100;25.222;2024-02-26T07:38:31;18.60;;;11.77;;
8640;SDS011;4358;42.100;25.222;2024-02-26T07:40:58;24.17;;;9.97;;
8640;SDS011;4358;42.100;25.222;2024-02-26T07:43:25;59.37;;;11.73;;
8640;SDS011;4358;42.100;25.222;2024-02-26T07:45:51;21.70;;;9.43;;
8640;SDS011;4358;42.100;25.222;2024-02-26T07:48:19;20.50;;;8.83;;
8640;SDS011;4358;42.100;25.222;2024-02-26T07:50:46;25.43;;;9.80;;
8640;SDS011;4358;42.100;25.222;2024-02-26T07:53:13;12.53;;;9.07;;
8640;SDS011;4358;42.100;25.222;2024-02-26T07:55:40;16.90;;;9.80;;
8640;SDS011;4358;42.100;25.222;2024-02-26T07:58:07;27.83;;;11.10;;
8640;SDS011;4358;42.100;25.222;2024-02-26T08:00:33;29.80;;;11.10;;
8640;SDS011;4358;42.100;25.222;2024-02-26T08:03:00;13.33;;;10.10;;
8640;SDS011;4358;42.100;25.222;2024-02-26T08:05:28;18.33;;;10.90;;
8640;SDS011;4358;42.100;25.222;2024-02-26T08:07:55;43.53;;;10.97;;
8640;SDS011;4358;42.100;25.222;2024-02-26T08:10:22;34.30;;;10.50;;
8640;SDS011;4358;42.100;25.222;2024-02-26T08:12:49;11.83;;;9.00;;
8640;SDS011;4358;42.100;25.222;2024-02-26T08:15:15;40.43;;;13.83;;
8640;SDS011;4358;42.100;25.222;2024-02-26T08:17:44;17.47;;;10.43;;
8640;SDS011;4358;42.100;25.222;2024-02-26T08:20:12;13.40;;;9.93;;
8640;SDS011;4358;42.100;25.222;2024-02-26T08:22:41;26.90;;;11.40;;
8640;SDS011;4358;42.100;25.222;2024-02-26T08:25:08;14.57;;;8.23;;
8640;SDS011;4358;42.100;25.222;2024-02-26T08:27:35;14.07;;;8.17;;
8640;SDS011;4358;42.100;25.222;2024-02-26T08:30:03;12.43;;;9.40;;
8640;SDS011;4358;42.100;25.222;2024-02-26T08:32:30;8.90;;;7.30;;
8640;SDS011;4358;42.100;25.222;2024-02-26T08:34:57;9.70;;;5.37;;
8640;SDS011;4358;42.100;25.222;2024-02-26T08:37:23;8.50;;;5.63;;
8640;SDS011;4358;42.100;25.222;2024-02-26T08:39:52;15.30;;;8.23;;
8640;SDS011;4358;42.100;25.222;2024-02-26T08:42:18;13.00;;;10.10;;
8640;SDS011;4358;42.100;25.222;2024-02-26T08:44:45;10.60;;;6.57;;
8640;SDS011;4358;42.100;25.222;2024-02-26T08:47:12;23.33;;;15.87;;
8640;SDS011;4358;42.100;25.222;2024-02-26T08:49:42;16.50;;;13.20;;
8640;SDS011;4358;42.100;25.222;2024-02-26T08:52:09;14.27;;;12.23;;
8640;SDS011;4358;42.100;25.222;2024-02-26T08:54:35;12.33;;;9.57;;
8640;SDS011;4358;42.100;25.222;2024-02-26T08:57:04;16.87;;;11.97;;
8640;SDS011;4358;42.100;25.222;2024-02-26T08:59:30;15.67;;;12.47;;
8640;SDS011;4358;42.100;25.222;2024-02-26T09:01:57;13.17;;;9.20;;
8640;SDS011;4358;42.100;25.222;2024-02-26T09:04:24;21.90;;;16.37;;
8640;SDS011;4358;42.100;25.222;2024-02-26T09:06:52;17.63;;;13.83;;
8640;SDS011;4358;42.100;25.222;2024-02-26T09:09:19;9.03;;;6.87;;
8640;SDS011;4358;42.100;25.222;2024-02-26T09:11:47;10.97;;;8.57;;
8640;SDS011;4358;42.100;25.222;2024-02-26T09:14:18;21.07;;;15.50;;
8640;SDS011;4358;42.100;25.222;2024-02-26T09:16:45;15.00;;;11.00;;
8640;SDS011;4358;42.100;25.222;2024-02-26T09:19:13;12.97;;;9.90;;
8640;SDS011;4358;42.100;25.222;2024-02-26T09:21:42;14.67;;;9.93;;
8640;SDS011;4358;42.100;25.222;2024-02-26T09:24:09;19.10;;;14.27;;
8640;SDS011;4358;42.100;25.222;2024-02-26T09:26:36;15.43;;;7.20;;
8640;SDS011;4358;42.100;25.222;2024-02-26T09:29:03;12.93;;;10.07;;
8640;SDS011;4358;42.100;25.222;2024-02-26T09:31:32;12.97;;;7.00;;
8640;SDS011;4358;42.100;25.222;2024-02-26T09:33:59;8.87;;;7.17;;
8640;SDS011;4358;42.100;25.222;2024-02-26T09:36:26;8.77;;;7.07;;
8640;SDS011;4358;42.100;25.222;2024-02-26T09:38:52;10.27;;;8.33;;
8640;SDS011;4358;42.100;25.222;2024-02-26T09:41:20;16.67;;;12.97;;
8640;SDS011;4358;42.100;25.222;2024-02-26T09:43:48;18.37;;;13.37;;
8640;SDS011;4358;42.100;25.222;2024-02-26T09:46:17;10.07;;;7.03;;
8640;SDS011;4358;42.100;25.222;2024-02-26T09:48:46;16.43;;;10.83;;
8640;SDS011;4358;42.100;25.222;2024-02-26T09:51:14;15.00;;;7.70;;
8640;SDS011;4358;42.100;25.222;2024-02-26T09:53:42;8.50;;;7.60;;
8640;SDS011;4358;42.100;25.222;2024-02-26T09:56:11;7.43;;;6.70;;
8640;SDS011;4358;42.100;25.222;2024-02-26T09:58:38;11.00;;;8.00;;
8640;SDS011;4358;42.100;25.222;2024-02-26T10:01:07;18.93;;;7.60;;
8640;SDS011;4358;42.100;25.222;2024-02-26T10:03:38;13.03;;;8.10;;
8640;SDS011;4358;42.100;25.222;2024-02-26T10:06:08;9.57;;;6.80;;
8640;SDS011;4358;42.100;25.222;2024-02-26T10:08:35;9.80;;;8.47;;
8640;SDS011;4358;42.100;25.222;2024-02-26T10:11:02;8.87;;;7.00;;
8640;SDS011;4358;42.100;25.222;2024-02-26T10:13:30;18.03;;;9.53;;
8640;SDS011;4358;42.100;25.222;2024-02-26T10:15:57;13.57;;;8.47;;
8640;SDS011;4358;42.100;25.222;2024-02-26T10:18:24;9.63;;;6.83;;
8640;SDS011;4358;42.100;25.222;2024-02-26T10:21:00;19.73;;;7.70;;
8640;SDS011;4358;42.100;25.222;2024-02-26T10:23:28;18.27;;;8.37;;
8640;SDS011;4358;42.100;25.222;2024-02-26T10:25:55;12.70;;;7.23;;
8640;SDS011;4358;42.100;25.222;2024-02-26T10:28:22;9.80;;;7.00;;
8640;SDS011;4358;42.100;25.222;2024-02-26T10:30:50;9.67;;;7.40;;
8640;SDS011;4358;42.100;25.222;2024-02-26T10:33:18;22.13;;;11.73;;
8640;SDS011;4358;42.100;25.222;2024-02-26T10:35:45;7.97;;;6.43;;
8640;SDS011;4358;42.100;25.222;2024-02-26T10:38:12;9.67;;;6.50;;
8640;SDS011;4358;42.100;25.222;2024-02-26T10:40:43;9.93;;;7.13;;
8640;SDS011;4358;42.100;25.222;2024-02-26T10:43:10;20.27;;;9.20;;
8640;SDS011;4358;42.100;25.222;2024-02-26T10:45:38;12.27;;;9.17;;
8640;SDS011;4358;42.100;25.222;2024-02-26T10:48:09;13.60;;;8.17;;
8640;SDS011;4358;42.100;25.222;2024-02-26T10:50:36;9.43;;;6.67;;
8640;SDS011;4358;42.100;25.222;2024-02-26T10:53:03;8.57;;;6.50;;
8640;SDS011;4358;42.100;25.222;2024-02-26T10:55:33;9.97;;;6.83;;
8640;SDS011;4358;42.100;25.222;2024-02-26T10:58:04;80.60;;;12.87;;
8640;SDS011;4358;42.100;25.222;2024-02-26T11:00:30;21.93;;;8.03;;
8640;SDS011;4358;42.100;25.222;2024-02-26T11:02:57;9.30;;;6.37;;
8640;SDS011;4358;42.100;25.222;2024-02-26T11:05:28;29.20;;;8.13;;
8640;SDS011;4358;42.100;25.222;2024-02-26T11:07:55;10.87;;;6.30;;
8640;SDS011;4358;42.100;25.222;2024-02-26T11:10:23;9.43;;;6.70;;
8640;SDS011;4358;42.100;25.222;2024-02-26T11:12:53;8.80;;;6.03;;
8640;SDS011;4358;42.100;25.222;2024-02-26T11:15:23;42.40;;;8.43;;
8640;SDS011;4358;42.100;25.222;2024-02-26T11:17:50;13.60;;;8.40;;
8640;SDS011;4358;42.100;25.222;2024-02-26T11:20:20;16.63;;;13.10;;
8640;SDS011;4358;42.100;25.222;2024-02-26T11:22:46;26.43;;;7.13;;
8640;SDS011;4358;42.100;25.222;2024-02-26T11:25:13;21.63;;;9.33;;
8640;SDS011;4358;42.100;25.222;2024-02-26T11:27:42;44.77;;;8.17;;
8640;SDS011;4358;42.100;25.222;2024-02-26T11:30:12;11.33;;;5.07;;
8640;SDS011;4358;42.100;25.222;2024-02-26T11:32:44;7.03;;;5.20;;
8640;SDS011;4358;42.100;25.222;2024-02-26T11:35:12;8.37;;;4.90;;
8640;SDS011;4358;42.100;25.222;2024-02-26T11:37:40;7.20;;;5.10;;
8640;SDS011;4358;42.100;25.222;2024-02-26T11:40:10;9.93;;;5.00;;
8640;SDS011;4358;42.100;25.222;2024-02-26T11:42:42;7.27;;;5.43;;
8640;SDS011;4358;42.100;25.222;2024-02-26T11:48:21;7.73;;;5.53;;
8640;SDS011;4358;42.100;25.222;2024-02-26T11:50:50;9.20;;;5.67;;
8640;SDS011;4358;42.100;25.222;2024-02-26T11:53:25;12.47;;;6.37;;
8640;SDS011;4358;42.100;25.222;2024-02-26T11:58:57;9.63;;;6.20;;
8640;SDS011;4358;42.100;25.222;2024-02-26T12:01:35;10.30;;;5.47;;
8640;SDS011;4358;42.100;25.222;2024-02-26T12:04:18;8.50;;;6.10;;
8640;SDS011;4358;42.100;25.222;2024-02-26T12:06:46;8.37;;;5.90;;
8640;SDS011;4358;42.100;25.222;2024-02-26T12:09:32;12.77;;;6.30;;
8640;SDS011;4358;42.100;25.222;2024-02-26T12:12:00;13.87;;;9.97;;
8640;SDS011;4358;42.100;25.222;2024-02-26T12:14:28;15.93;;;11.30;;
8640;SDS011;4358;42.100;25.222;2024-02-26T12:16:55;9.53;;;5.23;;
8640;SDS011;4358;42.100;25.222;2024-02-26T12:19:25;17.90;;;11.97;;
8640;SDS011;4358;42.100;25.222;2024-02-26T12:21:52;17.10;;;12.73;;
8640;SDS011;4358;42.100;25.222;2024-02-26T12:24:20;12.27;;;8.30;;
8640;SDS011;4358;42.100;25.222;2024-02-26T12:26:47;11.53;;;7.27;;
8640;SDS011;4358;42.100;25.222;2024-02-26T12:29:14;7.60;;;6.07;;
8640;SDS011;4358;42.100;25.222;2024-02-26T12:31:40;10.37;;;6.07;;
8640;SDS011;4358;42.100;25.222;2024-02-26T12:34:08;10.33;;;5.90;;
8640;SDS011;4358;42.100;25.222;2024-02-26T12:36:37;7.60;;;5.67;;
8640;SDS011;4358;42.100;25.222;2024-02-26T12:39:05;5.87;;;4.97;;
8640;SDS011;4358;42.100;25.222;2024-02-26T12:41:34;8.07;;;6.33;;
8640;SDS011;4358;42.100;25.222;2024-02-26T12:44:01;7.03;;;5.43;;
8640;SDS011;4358;42.100;25.222;2024-02-26T12:46:28;10.47;;;5.70;;
8640;SDS011;4358;42.100;25.222;2024-02-26T12:48:55;6.97;;;5.50;;
8640;SDS011;4358;42.100;25.222;2024-02-26T12:51:24;7.07;;;5.27;;
8640;SDS011;4358;42.100;25.222;2024-02-26T12:53:53;7.10;;;4.53;;
8640;SDS011;4358;42.100;25.222;2024-02-26T12:56:21;5.23;;;4.17;;
8640;SDS011;4358;42.100;25.222;2024-02-26T12:58:48;15.07;;;9.50;;
8640;SDS011;4358;42.100;25.222;2024-02-26T13:01:19;17.30;;;12.30;;
8640;SDS011;4358;42.100;25.222;2024-02-26T13:03:48;7.03;;;5.50;;
8640;SDS011;4358;42.100;25.222;2024-02-26T13:06:16;5.33;;;4.00;;
8640;SDS011;4358;42.100;25.222;2024-02-26T13:08:44;6.87;;;4.63;;
8640;SDS011;4358;42.100;25.222;2024-02-26T13:11:13;5.30;;;4.10;;
8640;SDS011;4358;42.100;25.222;2024-02-26T13:13:40;7.27;;;3.90;;
8640;SDS011;4358;42.100;25.222;2024-02-26T13:16:13;11.37;;;4.27;;
8640;SDS011;4358;42.100;25.222;2024-02-26T13:18:41;6.20;;;4.03;;
8640;SDS011;4358;42.100;25.222;2024-02-26T13:21:09;6.73;;;3.90;;
8640;SDS011;4358;42.100;25.222;2024-02-26T13:23:37;6.60;;;4.40;;
8640;SDS011;4358;42.100;25.222;2024-02-26T13:26:04;6.13;;;3.97;;
8640;SDS011;4358;42.100;25.222;2024-02-26T13:28:33;6.10;;;3.37;;
8640;SDS011;4358;42.100;25.222;2024-02-26T13:31:00;4.73;;;4.10;;
8640;SDS011;4358;42.100;25.222;2024-02-26T13:33:30;7.13;;;4.20;;
8640;SDS011;4358;42.100;25.222;2024-02-26T13:35:58;8.60;;;4.17;;
8640;SDS011;4358;42.100;25.222;2024-02-26T13:38:26;4.90;;;4.20;;
8640;SDS011;4358;42.100;25.222;2024-02-26T13:40:53;7.53;;;4.53;;
8640;SDS011;4358;42.100;25.222;2024-02-26T13:43:21;6.37;;;4.37;;
8640;SDS011;4358;42.100;25.222;2024-02-26T13:45:49;4.97;;;4.00;;
8640;SDS011;4358;42.100;25.222;2024-02-26T13:48:16;5.77;;;4.27;;
8640;SDS011;4358;42.100;25.222;2024-02-26T13:50:43;6.47;;;3.70;;
8640;SDS011;4358;42.100;25.222;2024-02-26T13:53:11;11.13;;;6.13;;
8640;SDS011;4358;42.100;25.222;2024-02-26T13:55:39;9.87;;;5.07;;
8640;SDS011;4358;42.100;25.222;2024-02-26T13:58:07;9.20;;;7.10;;
8640;SDS011;4358;42.100;25.222;2024-02-26T14:00:37;11.43;;;5.53;;
8640;SDS011;4358;42.100;25.222;2024-02-26T14:03:05;5.03;;;4.53;;
8640;SDS011;4358;42.100;25.222;2024-02-26T14:05:32;5.70;;;4.57;;
8640;SDS011;4358;42.100;25.222;2024-02-26T14:07:59;9.57;;;4.67;;
8640;SDS011;4358;42.100;25.222;2024-02-26T14:10:25;8.93;;;5.90;;
8640;SDS011;4358;42.100;25.222;2024-02-26T14:12:52;8.23;;;5.60;;
8640;SDS011;4358;42.100;25.222;2024-02-26T14:15:19;7.30;;;4.77;;
8640;SDS011;4358;42.100;25.222;2024-02-26T14:17:46;5.73;;;5.00;;
8640;SDS011;4358;42.100;25.222;2024-02-26T14:20:19;9.27;;;5.23;;
8640;SDS011;4358;42.100;25.222;2024-02-26T14:22:46;18.57;;;8.50;;
8640;SDS011;4358;42.100;25.222;2024-02-26T14:25:14;30.73;;;9.37;;
8640;SDS011;4358;42.100;25.222;2024-02-26T14:27:41;11.70;;;8.47;;
8640;SDS011;4358;42.100;25.222;2024-02-26T14:30:08;18.33;;;8.97;;
8640;SDS011;4358;42.100;25.222;2024-02-26T14:32:35;10.23;;;7.00;;
8640;SDS011;4358;42.100;25.222;2024-02-26T14:35:03;9.70;;;7.90;;
8640;SDS011;4358;42.100;25.222;2024-02-26T14:37:34;14.53;;;7.90;;
8640;SDS011;4358;42.100;25.222;2024-02-26T14:40:01;9.87;;;7.47;;
8640;SDS011;4358;42.100;25.222;2024-02-26T14:42:29;11.33;;;7.97;;
8640;SDS011;4358;42.100;25.222;2024-02-26T14:44:55;10.50;;;6.93;;
8640;SDS011;4358;42.100;25.222;2024-02-26T14:47:22;13.77;;;6.70;;
8640;SDS011;4358;42.100;25.222;2024-02-26T14:49:49;11.80;;;6.97;;
8640;SDS011;4358;42.100;25.222;2024-02-26T14:52:17;10.93;;;5.97;;
8640;SDS011;4358;42.100;25.222;2024-02-26T14:54:45;14.17;;;5.83;;
8640;SDS011;4358;42.100;25.222;2024-02-26T14:57:12;7.17;;;5.47;;
8640;SDS011;4358;42.100;25.222;2024-02-26T14:59:39;8.50;;;6.03;;